Time;durP1;ratioP1;P1;durP2;ratioP2;P2;SDS_P1;SDS_P2;PMS_P1;PMS_P2;Temp;Humidity;BMP_temperature;BMP_pressure;BME280_temperature;BME280_humidity;BME280_pressure;Samples;Min_cycle;Max_cycle;Signal;HPM_P1;HPM_P2
2021/09/15 00:00:53;;;;;;;5.15;1.85;;;;;;;12.84;100.00;99624.84;5052973;28;20090;-48
2021/09/15 00:03:55;;;;;;;8.77;2.55;;;;;;;12.84;100.00;99630.44;5053108;28;20103;-48
2021/09/15 00:06:58;;;;;;;4.28;2.58;;;;;;;12.82;100.00;99624.56;5053354;28;20048;-48
2021/09/15 00:10:03;;;;;;;14.70;2.55;;;;;;;12.76;100.00;99623.75;5053589;28;20048;-48
2021/09/15 00:13:07;;;;;;;7.78;2.35;;;;;;;12.73;100.00;99630.34;5053114;28;20039;-48
2021/09/15 00:16:10;;;;;;;5.90;2.55;;;;;;;12.60;100.00;99627.16;5053081;28;20052;-48
2021/09/15 00:19:13;;;;;;;6.95;1.90;;;;;;;12.63;100.00;99629.72;5052935;28;20122;-48
2021/09/15 00:22:16;;;;;;;13.70;2.70;;;;;;;12.67;100.00;99633.06;5052839;28;20091;-48
2021/09/15 00:25:19;;;;;;;4.78;1.90;;;;;;;12.56;100.00;99626.63;5052979;28;20126;-48
2021/09/15 00:28:22;;;;;;;7.80;2.15;;;;;;;12.61;100.00;99623.09;5052886;28;20048;-48
2021/09/15 00:31:24;;;;;;;17.38;3.67;;;;;;;12.65;100.00;99626.44;5052643;28;20433;-48
2021/09/15 00:34:30;;;;;;;4.97;1.40;;;;;;;12.72;100.00;99623.97;5052740;28;20159;-48
2021/09/15 00:37:33;;;;;;;6.97;2.28;;;;;;;12.82;100.00;99618.97;5052344;28;20051;-48
2021/09/15 00:40:36;;;;;;;16.85;2.67;;;;;;;12.91;100.00;99618.78;5052124;28;20059;-48
2021/09/15 00:44:08;;;;;;;8.13;1.75;;;;;;;13.07;100.00;99629.34;5052556;28;20036;-48
2021/09/15 00:47:12;;;;;;;13.75;3.17;;;;;;;13.22;100.00;99626.38;5052282;28;20056;-48
2021/09/15 00:50:14;;;;;;;8.98;2.90;;;;;;;13.30;100.00;99617.03;5052247;28;20567;-48
2021/09/15 00:53:18;;;;;;;6.00;2.10;;;;;;;13.35;100.00;99624.69;5059063;28;20493;-48
2021/09/15 00:56:21;;;;;;;7.68;2.58;;;;;;;13.39;100.00;99616.81;5072303;28;20447;-48
2021/09/15 00:59:23;;;;;;;10.18;2.97;;;;;;;13.47;100.00;99629.06;5072143;28;20055;-47
2021/09/15 01:02:27;;;;;;;9.02;2.42;;;;;;;13.56;100.00;99628.88;5071970;28;20044;-48
2021/09/15 01:05:30;;;;;;;11.18;3.33;;;;;;;13.62;100.00;99626.09;5058544;28;20047;-48
2021/09/15 01:08:34;;;;;;;11.88;2.83;;;;;;;13.67;100.00;99631.72;5072611;28;20044;-48
2021/09/15 01:11:42;;;;;;;11.48;3.30;;;;;;;13.74;100.00;99624.88;5073617;28;20044;-48
2021/09/15 01:14:45;;;;;;;15.98;2.50;;;;;;;13.79;100.00;99623.38;5073962;28;20117;-48
2021/09/15 01:17:48;;;;;;;9.75;2.30;;;;;;;13.86;100.00;99623.63;5073783;28;20093;-48
2021/09/15 01:20:51;;;;;;;15.18;2.30;;;;;;;13.89;100.00;99627.47;5073895;28;20090;-48
2021/09/15 01:23:54;;;;;;;4.47;1.88;;;;;;;13.93;100.00;99623.16;5073744;28;20035;-48
2021/09/15 01:26:58;;;;;;;4.50;1.67;;;;;;;13.97;100.00;99622.94;5073236;28;20048;-48
2021/09/15 01:30:03;;;;;;;11.38;2.50;;;;;;;14.00;100.00;99633.88;5073625;28;20067;-48
2021/09/15 01:33:10;;;;;;;9.80;2.90;;;;;;;14.01;100.00;99629.06;5072638;28;20051;-48
2021/09/15 01:36:13;;;;;;;34.35;5.13;;;;;;;14.12;100.00;99634.69;5061079;28;20393;-48
2021/09/15 01:39:16;;;;;;;17.52;2.88;;;;;;;14.18;100.00;99638.25;5073899;28;20047;-48
2021/09/15 01:42:19;;;;;;;8.38;2.53;;;;;;;14.19;100.00;99636.97;5073492;28;20086;-48
2021/09/15 01:45:22;;;;;;;8.23;2.55;;;;;;;14.19;100.00;99628.56;5073475;28;20097;-49
2021/09/15 01:48:25;;;;;;;12.80;2.75;;;;;;;14.25;100.00;99626.56;5061229;28;20098;-48
2021/09/15 01:51:28;;;;;;;4.03;1.52;;;;;;;14.34;100.00;99635.53;5073385;28;20399;-48
2021/09/15 01:54:32;;;;;;;6.50;2.65;;;;;;;14.42;100.00;99635.78;5056903;28;20059;-48
2021/09/15 01:57:34;;;;;;;13.48;2.17;;;;;;;14.37;100.00;99640.13;5053049;28;20052;-48
2021/09/15 02:00:37;;;;;;;11.45;3.20;;;;;;;14.36;100.00;99640.59;5040589;28;20052;-48
2021/09/15 02:03:40;;;;;;;7.43;2.25;;;;;;;14.35;100.00;99636.28;5053123;28;20048;-48
2021/09/15 02:06:43;;;;;;;7.18;2.47;;;;;;;14.36;100.00;99637.81;5052898;28;20140;-48
2021/09/15 02:09:46;;;;;;;8.63;1.95;;;;;;;14.51;100.00;99643.94;5053300;28;20047;-48
2021/09/15 02:12:49;;;;;;;3.72;1.15;;;;;;;14.57;100.00;99644.72;5053091;28;20087;-48
2021/09/15 02:15:51;;;;;;;13.25;2.47;;;;;;;14.71;100.00;99642.94;5052902;28;20048;-48
2021/09/15 02:18:54;;;;;;;18.77;3.65;;;;;;;14.72;100.00;99636.84;5053204;28;20095;-48
2021/09/15 02:21:57;;;;;;;14.23;2.75;;;;;;;14.80;100.00;99631.47;5053062;28;20040;-48
2021/09/15 02:25:01;;;;;;;6.72;3.60;;;;;;;14.78;100.00;99634.81;5053306;28;20095;-48
2021/09/15 02:28:05;;;;;;;7.03;2.53;;;;;;;14.89;100.00;99640.41;5052758;28;20071;-48
2021/09/15 02:31:08;;;;;;;9.63;2.20;;;;;;;14.92;100.00;99638.63;5052962;28;20556;-48
2021/09/15 02:34:11;;;;;;;17.30;3.33;;;;;;;14.89;100.00;99636.84;5052864;28;20409;-48
2021/09/15 02:37:14;;;;;;;10.70;2.50;;;;;;;14.93;100.00;99638.09;5069818;28;20043;-48
2021/09/15 02:40:17;;;;;;;12.88;2.60;;;;;;;14.97;100.00;99640.63;5072459;28;20087;-48
2021/09/15 02:43:20;;;;;;;17.70;3.60;;;;;;;15.04;100.00;99640.13;5072618;28;20085;-48
2021/09/15 02:46:23;;;;;;;12.50;2.60;;;;;;;15.02;100.00;99637.09;5072614;28;20043;-48
2021/09/15 02:49:29;;;;;;;11.45;2.55;;;;;;;15.05;100.00;99639.63;5072774;28;20503;-48
2021/09/15 02:52:33;;;;;;;16.13;3.72;;;;;;;15.08;100.00;99633.00;5060181;28;20050;-48
2021/09/15 02:55:36;;;;;;;16.17;2.50;;;;;;;15.17;100.00;99627.13;5072615;28;20082;-48
2021/09/15 02:58:39;;;;;;;17.67;4.35;;;;;;;15.30;100.00;99628.63;5072559;28;20102;-48
2021/09/15 03:01:42;;;;;;;17.40;4.30;;;;;;;15.34;100.00;99609.47;5072609;28;20059;-48
2021/09/15 03:04:45;;;;;;;8.70;3.42;;;;;;;15.33;100.00;99599.53;5072505;28;20156;-48
2021/09/15 03:07:48;;;;;;;16.85;3.03;;;;;;;15.35;100.00;99596.97;5072285;28;20054;-48
2021/09/15 03:10:51;;;;;;;13.00;2.75;;;;;;;15.38;100.00;99598.75;5072163;28;20047;-48
2021/09/15 03:13:53;;;;;;;10.93;2.67;;;;;;;15.32;100.00;99609.22;5072772;28;20048;-48
2021/09/15 03:16:56;;;;;;;10.57;3.28;;;;;;;15.39;100.00;99608.69;5072256;28;20086;-48
2021/09/15 03:19:59;;;;;;;9.95;2.58;;;;;;;15.37;100.00;99597.22;5073044;28;20047;-48
2021/09/15 03:23:02;;;;;;;25.52;5.32;;;;;;;15.33;100.00;99605.16;5072442;28;20097;-48
2021/09/15 03:26:05;;;;;;;9.98;3.83;;;;;;;15.26;100.00;99608.47;5072424;28;20071;-48
2021/09/15 03:29:08;;;;;;;12.43;4.13;;;;;;;15.26;100.00;99614.84;5073888;28;20089;-49
2021/09/15 03:32:11;;;;;;;11.10;3.40;;;;;;;15.31;100.00;99607.72;5075895;28;20105;-48
2021/09/15 03:35:14;;;;;;;11.10;3.45;;;;;;;15.35;100.00;99602.59;5075341;28;20047;-49
2021/09/15 03:38:17;;;;;;;13.20;3.50;;;;;;;15.43;100.00;99597.97;5075621;28;20218;-48
2021/09/15 03:41:20;;;;;;;18.63;3.83;;;;;;;15.45;100.00;99606.66;5075808;28;20116;-48
2021/09/15 03:44:23;;;;;;;14.23;3.25;;;;;;;15.38;100.00;99601.53;5075566;28;20059;-49
2021/09/15 03:47:26;;;;;;;5.63;2.45;;;;;;;15.39;100.00;99600.28;5055482;28;20500;-48
2021/09/15 03:50:29;;;;;;;9.25;3.20;;;;;;;15.34;100.00;99599.03;5055468;28;20557;-48
2021/09/15 03:53:31;;;;;;;15.40;4.28;;;;;;;15.37;100.00;99597.22;5064054;28;20125;-48
2021/09/15 03:56:34;;;;;;;14.30;2.75;;;;;;;15.43;100.00;99598.78;5075547;28;20044;-48
2021/09/15 03:59:37;;;;;;;18.75;3.85;;;;;;;15.46;100.00;99596.97;5075387;28;20408;-48
2021/09/15 04:02:40;;;;;;;10.07;2.17;;;;;;;15.43;100.00;99603.59;5075477;28;20039;-48
2021/09/15 04:05:43;;;;;;;13.60;3.53;;;;;;;15.41;100.00;99606.16;5075395;28;20169;-49
2021/09/15 04:08:46;;;;;;;7.78;2.38;;;;;;;15.44;100.00;99600.28;5075279;28;20055;-49
2021/09/15 04:11:48;;;;;;;12.73;4.10;;;;;;;15.44;100.00;99599.53;5074828;28;20047;-48
2021/09/15 04:14:52;;;;;;;14.68;3.78;;;;;;;15.46;100.00;99602.59;5075239;28;20525;-48
2021/09/15 04:17:54;;;;;;;17.42;3.67;;;;;;;15.50;100.00;99605.91;5074931;28;20133;-48
2021/09/15 04:20:57;;;;;;;9.50;1.98;;;;;;;15.47;100.00;99613.28;5075183;28;20051;-48
2021/09/15 04:33:58;;;;;;;7.18;2.08;;;;;;;15.22;100.00;99617.16;5074782;28;20484;-48
2021/09/15 04:37:00;;;;;;;8.45;2.47;;;;;;;15.18;100.00;99620.22;5074778;28;20048;-48
2021/09/15 04:40:04;;;;;;;8.70;2.42;;;;;;;15.18;100.00;99617.41;5073784;28;20523;-48
2021/09/15 04:43:06;;;;;;;18.15;4.10;;;;;;;15.13;100.00;99617.44;5074723;28;20089;-48
2021/09/15 04:46:09;;;;;;;17.55;3.47;;;;;;;15.14;100.00;99619.72;5074613;28;20452;-48
2021/09/15 04:49:12;;;;;;;18.90;3.65;;;;;;;15.23;100.00;99612.31;5074327;28;20230;-49
2021/09/15 04:52:15;;;;;;;10.52;2.75;;;;;;;15.25;100.00;99620.97;5074538;28;20135;-48
2021/09/15 04:55:18;;;;;;;15.82;3.25;;;;;;;15.29;100.00;99621.50;5034296;28;20091;-48
2021/09/15 04:58:21;;;;;;;22.23;3.70;;;;;;;15.30;100.00;99617.38;5034201;28;20043;-49
2021/09/15 05:01:23;;;;;;;9.98;2.40;;;;;;;15.36;100.00;99623.75;5034384;28;20064;-48
2021/09/15 05:04:26;;;;;;;13.57;3.00;;;;;;;15.45;100.00;99617.88;5034211;28;20044;-49
2021/09/15 05:07:29;;;;;;;13.90;2.80;;;;;;;15.50;100.00;99619.94;5034230;28;20047;-48
2021/09/15 05:10:32;;;;;;;11.50;2.10;;;;;;;15.55;100.00;99621.97;5034183;28;20087;-48
2021/09/15 05:13:35;;;;;;;17.27;3.60;;;;;;;15.55;100.00;99624.78;5051198;28;20120;-48
2021/09/15 05:16:37;;;;;;;10.77;1.98;;;;;;;15.68;100.00;99619.38;5073368;28;20047;-48
2021/09/15 05:19:40;;;;;;;9.77;3.30;;;;;;;15.71;100.00;99623.94;5073824;28;20085;-48
2021/09/15 05:22:49;;;;;;;16.83;3.03;;;;;;;15.70;100.00;99628.03;5074105;28;20093;-48
2021/09/15 05:25:53;;;;;;;7.15;2.00;;;;;;;15.74;100.00;99629.25;5073652;28;20047;-48
2021/09/15 05:28:55;;;;;;;11.43;2.40;;;;;;;15.75;100.00;99635.66;5073836;28;20047;-48
2021/09/15 05:31:58;;;;;;;5.93;2.30;;;;;;;15.81;100.00;99625.16;5073598;28;20102;-48
2021/09/15 05:35:02;;;;;;;5.70;1.80;;;;;;;15.83;100.00;99628.25;5073611;28;20047;-48
2021/09/15 05:38:05;;;;;;;10.63;1.75;;;;;;;15.56;100.00;99634.69;5073539;28;20044;-48
2021/09/15 05:41:08;;;;;;;5.57;1.45;;;;;;;15.33;100.00;99644.44;5073361;28;20122;-48
2021/09/15 05:44:11;;;;;;;9.73;2.30;;;;;;;15.19;100.00;99649.03;5073221;28;20089;-48
2021/09/15 05:47:13;;;;;;;8.10;1.38;;;;;;;15.03;100.00;99644.19;5073132;28;20043;-48
2021/09/15 05:50:16;;;;;;;14.68;3.35;;;;;;;14.77;100.00;99636.06;5061149;28;20424;-48
2021/09/15 05:53:19;;;;;;;5.03;2.42;;;;;;;14.53;100.00;99635.03;5072653;28;20043;-48
2021/09/15 05:56:22;;;;;;;7.97;2.00;;;;;;;14.39;100.00;99640.38;5060188;28;20106;-49
2021/09/15 05:59:25;;;;;;;6.70;2.20;;;;;;;14.23;100.00;99648.69;5052986;28;20148;-48
2021/09/15 06:02:28;;;;;;;10.40;1.83;;;;;;;14.19;100.00;99656.56;5053102;28;20099;-48
2021/09/15 06:05:31;;;;;;;10.95;1.75;;;;;;;14.13;100.00;99658.59;5053059;28;20051;-48
2021/09/15 06:08:34;;;;;;;10.32;2.58;;;;;;;14.11;100.00;99661.16;5052932;28;20099;-48
2021/09/15 06:11:37;;;;;;;7.07;2.00;;;;;;;14.02;100.00;99664.16;5053037;28;20473;-48
2021/09/15 06:14:39;;;;;;;8.80;2.42;;;;;;;13.94;100.00;99669.50;5052923;28;20076;-48
2021/09/15 06:17:42;;;;;;;6.47;1.63;;;;;;;14.03;100.00;99674.13;5052847;28;20052;-48
2021/09/15 06:20:45;;;;;;;6.60;1.45;;;;;;;14.05;100.00;99675.16;5052630;28;20040;-48
2021/09/15 06:23:48;;;;;;;3.38;1.20;;;;;;;14.04;100.00;99678.44;5053066;28;20106;-48
2021/09/15 06:26:52;;;;;;;4.50;2.38;;;;;;;14.16;100.00;99680.00;5052255;28;20051;-48
2021/09/15 06:29:55;;;;;;;10.55;2.72;;;;;;;14.21;100.00;99685.63;5052663;28;20119;-48
2021/09/15 06:32:57;;;;;;;10.10;2.17;;;;;;;14.32;100.00;99682.09;5052208;28;20052;-48
2021/09/15 06:36:03;;;;;;;6.30;2.15;;;;;;;14.42;100.00;99680.63;5052442;28;20043;-48
2021/09/15 06:39:07;;;;;;;7.50;2.50;;;;;;;14.42;100.00;99684.16;5052327;28;20052;-48
2021/09/15 06:42:12;;;;;;;8.70;2.15;;;;;;;14.44;100.00;99689.28;5052666;28;20048;-48
2021/09/15 06:45:14;;;;;;;11.77;2.83;;;;;;;14.46;100.00;99683.94;5052481;28;20039;-48
2021/09/15 06:48:19;;;;;;;4.03;1.42;;;;;;;14.44;100.00;99690.03;5052588;28;20075;-48
2021/09/15 06:51:22;;;;;;;7.78;1.95;;;;;;;14.53;100.00;99686.22;5052593;28;20103;-48
2021/09/15 06:54:25;;;;;;;12.05;2.67;;;;;;;14.66;100.00;99692.09;5068667;28;20389;-48
2021/09/15 06:57:28;;;;;;;6.32;2.50;;;;;;;15.01;100.00;99698.00;5072320;28;20484;-48
2021/09/15 07:00:31;;;;;;;10.70;2.42;;;;;;;14.91;100.00;99699.53;5061742;28;20138;-48
2021/09/15 07:03:34;;;;;;;3.92;2.35;;;;;;;15.21;100.00;99696.97;5053290;28;20065;-49
2021/09/15 07:06:37;;;;;;;6.35;1.92;;;;;;;15.30;100.00;99704.38;5043689;28;20405;-49
2021/09/15 07:09:40;;;;;;;9.35;2.63;;;;;;;15.31;100.00;99705.91;5056366;28;20040;-48
2021/09/15 07:12:44;;;;;;;7.05;1.67;;;;;;;15.28;100.00;99713.31;5056360;28;20036;-49
2021/09/15 07:15:47;;;;;;;6.60;1.98;;;;;;;15.60;100.00;99719.41;5043938;28;20039;-49
2021/09/15 07:18:51;;;;;;;12.73;2.30;;;;;;;15.49;100.00;99714.59;5056178;28;20111;-48
2021/09/15 07:21:53;;;;;;;4.78;1.92;;;;;;;15.40;100.00;99716.88;5056106;28;20048;-49
2021/09/15 07:24:56;;;;;;;11.25;3.45;;;;;;;15.49;100.00;99725.03;5056253;28;20579;-49
2021/09/15 07:27:59;;;;;;;7.35;2.33;;;;;;;15.62;100.00;99728.06;5056058;28;20122;-48
2021/09/15 07:31:02;;;;;;;6.95;2.65;;;;;;;15.76;100.00;99727.03;5055724;28;20560;-49
2021/09/15 07:34:05;;;;;;;5.82;1.85;;;;;;;15.95;100.00;99733.63;5056109;28;20048;-48
2021/09/15 07:37:09;;;;;;;6.55;2.17;;;;;;;15.97;100.00;99741.53;5055753;28;20064;-49
2021/09/15 07:40:14;;;;;;;14.68;3.05;;;;;;;15.98;100.00;99732.59;5055726;28;20499;-49
2021/09/15 07:43:17;;;;;;;17.30;3.47;;;;;;;16.21;100.00;99731.22;5055951;28;20412;-49
2021/09/15 07:46:21;;;;;;;5.05;1.52;;;;;;;16.41;100.00;99730.91;5055668;28;20164;-49
2021/09/15 07:49:24;;;;;;;10.32;1.77;;;;;;;16.65;100.00;99733.84;5055449;28;20129;-49
2021/09/15 07:52:27;;;;;;;14.25;2.63;;;;;;;16.75;100.00;99731.47;5054897;28;20122;-49
2021/09/15 07:55:31;;;;;;;7.53;1.52;;;;;;;16.79;100.00;99731.97;5035149;28;20076;-49
2021/09/15 07:58:33;;;;;;;8.75;2.63;;;;;;;16.75;100.00;99731.47;5035153;28;20136;-49
2021/09/15 08:01:36;;;;;;;10.27;2.55;;;;;;;16.84;100.00;99733.97;5035382;28;20060;-49
2021/09/15 08:04:39;;;;;;;2.60;1.27;;;;;;;16.95;100.00;99738.75;5034183;28;20040;-49
2021/09/15 08:07:42;;;;;;;13.52;2.20;;;;;;;17.06;100.00;99738.69;5034314;28;20048;-49
2021/09/15 08:10:46;;;;;;;6.47;1.63;;;;;;;17.16;100.00;99749.09;5034002;28;20048;-49
2021/09/15 08:13:51;;;;;;;7.65;1.92;;;;;;;17.16;100.00;99739.88;5034590;28;20045;-49
2021/09/15 08:16:54;;;;;;;6.28;1.10;;;;;;;17.32;100.00;99739.75;5032782;28;20117;-49
2021/09/15 08:19:57;;;;;;;14.55;2.40;;;;;;;17.38;100.00;99739.69;5034103;28;20044;-49
2021/09/15 08:23:00;;;;;;;5.25;1.88;;;;;;;17.44;100.00;99734.78;5033884;28;20088;-49
2021/09/15 08:26:03;;;;;;;5.22;1.30;;;;;;;17.56;100.00;99736.25;5034363;28;20168;-49
2021/09/15 08:29:06;;;;;;;4.22;1.77;;;;;;;17.62;100.00;99734.13;5033460;28;20466;-49
2021/09/15 08:32:09;;;;;;;3.00;1.20;;;;;;;17.70;100.00;99728.66;5034656;28;20497;-49
2021/09/15 08:35:12;;;;;;;3.45;0.85;;;;;;;17.68;100.00;99734.06;5034238;28;20056;-49
2021/09/15 08:38:15;;;;;;;3.42;0.45;;;;;;;16.43;100.00;99745.19;5022374;28;20060;-49
2021/09/15 08:41:18;;;;;;;5.05;1.60;;;;;;;17.38;100.00;99736.88;5034325;28;20040;-49
2021/09/15 08:44:21;;;;;;;3.22;1.15;;;;;;;17.72;100.00;99738.13;5034775;28;20135;-49
2021/09/15 08:47:28;;;;;;;2.78;0.80;;;;;;;17.90;100.00;99747.94;5022083;28;20047;-49
2021/09/15 08:50:31;;;;;;;3.88;1.10;;;;;;;17.94;100.00;99749.16;5034459;28;20044;-49
2021/09/15 08:53:36;;;;;;;5.00;1.20;;;;;;;18.03;100.00;99757.25;5051843;28;20052;-49
2021/09/15 08:56:39;;;;;;;5.05;1.38;;;;;;;18.34;100.00;99753.06;5074111;28;20079;-49
2021/09/15 08:59:42;;;;;;;4.38;1.10;;;;;;;18.23;100.00;99758.06;5073959;28;20059;-49
2021/09/15 09:02:47;;;;;;;3.00;0.73;;;;;;;16.78;100.00;99780.31;5074015;28;20036;-49
2021/09/15 09:05:50;;;;;;;4.30;0.90;;;;;;;16.76;100.00;99777.25;5073456;28;20043;-49
2021/09/15 09:08:54;;;;;;;4.20;1.10;;;;;;;16.60;100.00;99781.69;5074037;28;20051;-49
2021/09/15 09:12:00;;;;;;;1.67;0.68;;;;;;;16.46;100.00;99788.34;5073704;28;20579;-49
2021/09/15 09:15:21;;;;;;;3.53;0.30;;;;;;;17.67;100.00;99775.53;5073975;28;20119;-49
2021/09/15 09:18:24;;;;;;;3.72;0.43;;;;;;;18.17;100.00;99766.56;5074101;28;20071;-49
2021/09/15 09:21:30;;;;;;;0.68;0.55;;;;;;;18.42;100.00;99767.31;5073562;28;20128;-49
2021/09/15 09:24:46;;;;;;;1.33;0.60;;;;;;;18.63;100.00;99768.34;5073548;28;20420;-49
2021/09/15 09:27:50;;;;;;;0.80;0.50;;;;;;;18.76;100.00;99763.53;5072603;28;20564;-50
2021/09/15 09:31:07;;;;;;;1.63;0.50;;;;;;;18.85;100.00;99773.69;5073667;28;20046;-58
2021/09/15 09:34:10;;;;;;;4.45;0.90;;;;;;;18.98;100.00;99770.91;5073325;28;20082;-58
2021/09/15 09:37:17;;;;;;;3.83;1.08;;;;;;;18.99;100.00;99772.47;5073394;28;20044;-58
2021/09/15 09:40:20;;;;;;;2.53;0.68;;;;;;;19.03;100.00;99766.50;5072771;28;20110;-59
2021/09/15 09:43:24;;;;;;;2.03;0.80;;;;;;;17.74;100.00;99774.97;5049291;28;20389;-58
2021/09/15 09:46:33;;;;;;;3.08;1.00;;;;;;;18.91;100.00;99765.88;5073219;28;20036;-58
2021/09/15 09:49:57;;;;;;;1.52;0.57;;;;;;;19.01;100.00;99757.81;5072946;28;20527;-58
2021/09/15 09:53:03;;;;;;;0.77;0.60;;;;;;;18.41;100.00;99757.34;5056287;28;20111;-58
2021/09/15 09:56:06;;;;;;;0.30;0.22;;;;;;;18.62;100.00;99761.94;5052770;28;20114;-58
2021/09/15 09:59:10;;;;;;;1.65;0.25;;;;;;;18.77;100.00;99761.47;5052451;28;20532;-57
2021/09/15 10:02:13;;;;;;;2.22;0.63;;;;;;;19.24;100.00;99765.38;5053230;28;20052;-58
2021/09/15 10:05:20;;;;;;;3.50;0.52;;;;;;;19.47;100.00;99758.09;5052110;28;20500;-57
2021/09/15 10:08:24;;;;;;;3.05;0.63;;;;;;;19.83;100.00;99746.41;5052162;28;20052;-58
2021/09/15 10:11:27;;;;;;;5.13;0.65;;;;;;;20.08;100.00;99750.56;5052195;28;20079;-58
2021/09/15 10:14:33;;;;;;;2.75;0.30;;;;;;;20.01;100.00;99746.31;5052774;28;20102;-57
2021/09/15 10:17:55;;;;;;;0.90;0.30;;;;;;;20.22;100.00;99749.28;5052613;28;20043;-57
2021/09/15 10:21:00;;;;;;;1.80;0.40;;;;;;;20.25;100.00;99753.84;5052505;28;20098;-57
2021/09/15 10:24:04;;;;;;;1.00;0.40;;;;;;;20.30;100.00;99755.81;5052737;28;20056;-58
2021/09/15 10:27:10;;;;;;;1.25;0.55;;;;;;;20.44;100.00;99756.56;5052684;28;20048;-58
2021/09/15 10:30:16;;;;;;;4.75;1.15;;;;;;;20.35;100.00;99764.19;5041147;28;20048;-57
2021/09/15 10:33:38;;;;;;;0.70;0.25;;;;;;;20.21;100.00;99751.34;5052664;28;20044;-57
2021/09/15 10:36:42;;;;;;;3.40;1.08;;;;;;;20.12;100.00;99751.00;5029574;28;20912;-57
2021/09/15 10:40:10;;;;;;;4.38;0.70;;;;;;;19.66;100.00;99741.09;5050498;28;20032;-58
2021/09/15 10:43:43;;;;;;;4.18;0.75;;;;;;;19.49;100.00;99747.00;5050957;28;20200;-57
2021/09/15 10:46:48;;;;;;;2.60;0.98;;;;;;;20.17;100.00;99744.47;5042518;28;20115;-59
2021/09/15 10:49:53;;;;;;;1.70;0.47;;;;;;;20.22;100.00;99743.63;5030897;28;20460;-50
2021/09/15 10:53:08;;;;;;;1.17;1.05;;;;;;;20.93;100.00;99738.47;5057375;28;20572;-50
2021/09/15 10:56:35;;;;;;;3.45;0.98;;;;;;;21.09;100.00;99734.50;5074929;28;20097;-50
2021/09/15 11:00:01;;;;;;;1.98;0.82;;;;;;;20.90;100.00;99752.94;5074248;28;20113;-50
2021/09/15 11:03:35;;;;;;;5.68;1.02;;;;;;;20.52;100.00;99744.03;5075129;28;20082;-50
2021/09/15 11:06:38;;;;;;;3.15;0.60;;;;;;;20.30;100.00;99758.63;5076257;28;20051;-50
2021/09/15 11:09:41;;;;;;;1.77;0.52;;;;;;;20.34;100.00;99757.00;5076174;28;20044;-49
2021/09/15 11:12:47;;;;;;;5.28;1.45;;;;;;;20.71;100.00;99767.25;5076513;28;20051;-50
2021/09/15 11:15:53;;;;;;;6.47;1.17;;;;;;;20.97;100.00;99763.59;5076297;28;20047;-50
2021/09/15 11:19:03;;;;;;;1.88;0.73;;;;;;;21.20;100.00;99758.97;5076636;28;20050;-59
2021/09/15 11:22:07;;;;;;;3.58;1.13;;;;;;;21.12;100.00;99756.06;5076634;28;20051;-58
2021/09/15 11:25:15;;;;;;;3.22;0.60;;;;;;;20.75;100.00;99759.19;5064108;28;20067;-58
2021/09/15 11:28:22;;;;;;;6.60;0.88;;;;;;;20.49;100.00;99767.75;5076358;28;20086;-58
2021/09/15 11:31:26;;;;;;;1.73;0.40;;;;;;;20.63;100.00;99769.25;5076002;28;20044;-59
2021/09/15 11:34:30;;;;;;;1.85;0.98;;;;;;;20.67;100.00;99764.00;5075861;28;20093;-58
2021/09/15 11:37:33;;;;;;;4.25;0.82;;;;;;;20.76;100.00;99757.91;5075677;28;20094;-58
2021/09/15 11:40:36;;;;;;;4.75;1.15;;;;;;;21.00;100.00;99766.09;5075838;28;20044;-58
2021/09/15 11:43:43;;;;;;;2.13;0.60;;;;;;;21.00;100.00;99771.00;5075655;28;20098;-58
2021/09/15 11:46:46;;;;;;;6.60;1.05;;;;;;;21.07;100.00;99762.59;5075690;28;20177;-49
2021/09/15 11:49:49;;;;;;;2.63;1.35;;;;;;;20.85;100.00;99762.34;5075190;28;20059;-49
2021/09/15 11:52:56;;;;;;;6.45;1.63;;;;;;;20.78;100.00;99766.59;5071621;28;20091;-49
2021/09/15 11:59:03;;;;;;;5.00;0.93;;;;;;;21.54;100.00;99758.91;5055433;28;20572;-49
2021/09/15 12:02:10;;;;;;;4.82;1.33;;;;;;;21.57;100.00;99760.63;5055268;28;20080;-49
2021/09/15 12:05:14;;;;;;;4.50;1.55;;;;;;;21.26;100.00;99764.50;5055532;28;20172;-49
2021/09/15 12:08:17;;;;;;;5.32;1.73;;;;;;;20.55;100.00;99756.31;5055225;28;20059;-49
2021/09/15 12:11:21;;;;;;;5.93;1.35;;;;;;;21.00;100.00;99760.44;5055585;28;20390;-49
2021/09/15 12:14:32;;;;;;;2.97;1.40;;;;;;;21.34;100.00;99753.97;5055081;28;20036;-49
2021/09/15 12:17:36;;;;;;;6.80;1.20;;;;;;;21.66;100.00;99751.63;5055165;28;20040;-49
2021/09/15 12:20:47;;;;;;;3.28;1.52;;;;;;;21.69;100.00;99744.84;5054933;28;20567;-49
2021/09/15 12:23:59;;;;;;;3.05;0.80;;;;;;;20.95;100.00;99752.06;5055179;28;20059;-50
2021/09/15 12:27:15;;;;;;;3.60;0.85;;;;;;;21.26;100.00;99747.50;5039282;28;20072;-49
2021/09/15 12:30:23;;;;;;;2.78;0.73;;;;;;;21.42;100.00;99743.50;5050841;28;20045;-49
2021/09/15 12:33:47;;;;;;;4.85;1.42;;;;;;;21.33;100.00;99743.97;5054815;28;20080;-49
2021/09/15 12:36:50;;;;;;;4.18;1.13;;;;;;;21.19;100.00;99753.84;5054682;28;20164;-49
2021/09/15 12:39:57;;;;;;;6.13;1.65;;;;;;;20.99;100.00;99750.41;5055032;28;20796;-49
2021/09/15 12:43:03;;;;;;;7.35;1.80;;;;;;;20.98;100.00;99751.75;5054372;28;20047;-49
2021/09/15 12:46:26;;;;;;;2.05;0.93;;;;;;;21.22;100.00;99752.75;5053901;28;20122;-49
2021/09/15 12:49:32;;;;;;;2.10;0.80;;;;;;;21.32;100.00;99748.88;5053432;28;20095;-47
2021/09/15 12:52:40;;;;;;;4.57;1.65;;;;;;;21.22;100.00;99759.19;5033015;28;20044;-47
2021/09/15 12:55:47;;;;;;;10.90;1.25;;;;;;;21.13;100.00;99751.94;5018805;28;20516;-56
2021/09/15 12:58:51;;;;;;;5.95;1.40;;;;;;;21.07;100.00;99754.09;5037917;28;20111;-56
2021/09/15 13:02:25;;;;;;;6.53;1.10;;;;;;;21.04;100.00;99754.47;5051972;28;20048;-55
2021/09/15 13:05:31;;;;;;;3.30;1.50;;;;;;;19.88;100.00;99751.22;5053355;28;20049;-56
2021/09/15 13:08:53;;;;;;;;;;;;;;;19.64;100.00;99758.56;5053920;28;20056;-56
2021/09/15 13:11:55;;;;;;;2.95;1.10;;;;;;;21.15;100.00;99748.53;5053902;28;20398;-55
2021/09/15 13:15:01;;;;;;;5.63;0.90;;;;;;;21.82;100.00;99745.56;5053767;28;20048;-56
2021/09/15 13:18:04;;;;;;;3.50;1.60;;;;;;;21.94;100.00;99736.75;5053908;28;20067;-56
2021/09/15 13:21:07;;;;;;;3.67;1.48;;;;;;;21.93;100.00;99744.50;5053727;28;20557;-55
2021/09/15 13:24:10;;;;;;;3.78;1.13;;;;;;;22.11;100.00;99749.13;5051745;28;20048;-57
2021/09/15 13:27:13;;;;;;;4.13;1.65;;;;;;;21.95;100.00;99747.53;5052428;28;20107;-57
2021/09/15 13:30:16;;;;;;;6.07;2.28;;;;;;;21.78;100.00;99752.84;5052749;28;20051;-56
2021/09/15 13:33:20;;;;;;;4.07;1.38;;;;;;;21.57;100.00;99760.63;5052268;28;20099;-57
2021/09/15 13:36:23;;;;;;;5.75;1.92;;;;;;;21.29;100.00;99752.06;5039764;28;20504;-56
2021/09/15 13:39:26;;;;;;;5.45;1.10;;;;;;;20.99;100.00;99753.25;5052510;28;20500;-56
2021/09/15 13:42:29;;;;;;;3.45;1.20;;;;;;;20.96;100.00;99760.00;5053238;28;20095;-47
2021/09/15 13:45:32;;;;;;;3.60;1.73;;;;;;;20.87;100.00;99757.66;5053270;28;20044;-46
2021/09/15 13:48:35;;;;;;;3.17;1.25;;;;;;;21.14;100.00;99753.44;5053515;28;20048;-47
2021/09/15 13:51:38;;;;;;;2.72;1.38;;;;;;;21.36;100.00;99751.34;5053201;28;20091;-49
2021/09/15 13:54:42;;;;;;;7.53;1.70;;;;;;;21.62;100.00;99739.88;5070992;28;20043;-49
2021/09/15 13:57:48;;;;;;;5.18;1.48;;;;;;;21.66;100.00;99740.28;5072500;28;20415;-49
2021/09/15 14:00:51;;;;;;;6.57;2.72;;;;;;;21.64;100.00;99742.91;5060903;28;20130;-49
2021/09/15 14:03:54;;;;;;;3.85;1.63;;;;;;;21.54;100.00;99744.72;5072947;28;20089;-49
2021/09/15 14:06:56;;;;;;;4.63;2.28;;;;;;;21.54;100.00;99739.81;5072882;28;20051;-49
2021/09/15 14:10:01;;;;;;;3.88;1.98;;;;;;;21.59;100.00;99746.66;5072697;28;20047;-49
2021/09/15 14:13:04;;;;;;;3.20;1.58;;;;;;;21.57;100.00;99746.47;5072756;28;20079;-49
2021/09/15 14:16:08;;;;;;;6.32;2.08;;;;;;;21.72;100.00;99738.81;5072818;28;20093;-49
2021/09/15 14:19:12;;;;;;;6.15;2.00;;;;;;;21.88;100.00;99734.81;5073429;28;20051;-49
2021/09/15 14:22:15;;;;;;;1.95;0.80;;;;;;;21.57;100.00;99744.38;5072894;28;20122;-49
2021/09/15 14:25:18;;;;;;;2.95;1.20;;;;;;;21.35;100.00;99744.19;5072519;28;20040;-49
2021/09/15 14:28:21;;;;;;;2.78;1.58;;;;;;;21.00;100.00;99743.44;5072467;28;20500;-49
2021/09/15 14:31:25;;;;;;;3.85;1.45;;;;;;;20.88;100.00;99747.06;5073117;28;20105;-49